Main page
METAR-TAF:

METAR-TAF

Airports :

Mo i Rana Airport. Røssvoll

Mo I Rana, Norway

latitude: 66-22N, longitude: 014-18E, elevation: 7 m

Current weather observation

The report was made 32 minutes ago, at 20:50 UTC
Wind 2 kt from variable directions
Temperature -1°C
Humidity 93%
Pressure 968 hPa
Visibility 10 km or more
Few clouds at a height of 1800 ft
Scattered clouds at a height of 3000 ft
Broken clouds at a height of 5000 ft

METAR: ENRA 172050Z VRB02KT 9999 FEW018 SCT030 BKN050 M01/M02 Q0968

Time: 22:22 (21:22 UTC)

Forecast

The report was made 4 hours and 22 minutes ago, at 17:00 UTC
Forecast valid from 17 at 18 UTC to 17 at 23 UTC
Wind 5 kt from variable directions
Visibility 10 km or more
Few clouds at a height of 200 ft
Broken clouds at a height of 5000 ft
Probability 30%
from 17 at 18 UTC to 17 at 23 UTC
Visibility: 0500 m
at a height of 200 ft
freezing fog

TAF: ENRA 171700Z 1718/1723 VRB05KT 9999 FEW002 BKN050 PROB30 1718/1723 0500 FZFG VV002

Weather observations and forecasts of more than 4000 airports (METAR and TAF reports).

The available stations are represented by yellow and red dots on the map.

Hover mouse over dot to see the name of the station.

Then click to see weather observations and forecasts.

To change the map : click on the green buttons with a black cross to zoom in, on the green button with a dash to zoom out, or on the green arrows for adjacent maps.


METAR-TAF: